DW7355 Weather Reports


Display with metric or nautical units.
time (UTC)temp
F
wind
direction
speed
MPH
gust
MPH
rain 1hr
in
rain 24hr
in
rain mn
in
humidity
%
barometer
mb
20240304020056 46 71 0.0 0.0 0.00 1.08 0.13 93 1023.9
20240304014558 46 71 0.0 0.0 0.00 1.13 0.13 93 1023.7
20240304013051 47 71 0.0 0.0 0.00 1.13 0.13 92 1023.5
20240304011550 47 71 0.0 0.0 0.00 1.13 0.13 91 1023.4
20240304010108 48 71 0.0 0.0 0.00 1.13 0.13 91 1023.4
20240304004548 48 71 0.0 0.0 0.00 1.27 0.13 91 1023.2
20240304003045 48 70 0.0 0.0 0.00 1.27 0.13 90 1023.0
20240304001543 49 71 0.0 0.0 0.00 1.27 0.13 90 1022.9
20240304000042 48 70 0.0 0.0 0.00 1.27 0.13 91 1022.8
20240303234555 48 71 0.0 0.0 0.00 1.35 0.13 87 1022.6
20240303233037 50 71 0.0 0.0 0.00 1.35 0.13 87 1022.4
20240303231537 51 70 0.0 0.0 0.00 1.35 0.13 85 1022.1
20240303230038 52 71 0.0 0.0 0.00 1.42 0.13 82 1021.9
20240303224546 54 70 0.0 0.0 0.00 1.42 0.13 79 1021.6
20240303223031 55 70 0.0 3.0 0.00 1.42 0.13 76 1021.2
20240303221527 56 19 0.0 6.0 0.00 1.42 0.13 74 1021.0
20240303220028 57 35 2.0 5.0 0.00 1.44 0.13 73 1020.6
20240303214524 57 351 2.0 6.0 0.00 1.44 0.13 72 1020.4
20240303213022 58 14 1.0 6.0 0.00 1.44 0.13 71 1020.4
20240303211536 58 295 4.0 7.0 0.00 1.44 0.13 70 1020.1
20240303210022 58 359 2.0 7.0 0.00 1.46 0.13 70 1020.0
20240303204523 57 308 3.0 6.0 0.00 1.46 0.13 70 1020.2
20240303203020 58 19 3.0 6.0 0.00 1.46 0.13 69 1019.9
20240303201518 58 18 2.0 6.0 0.00 1.46 0.13 70 1019.8
20240303200020 58 5 2.0 6.0 0.00 1.48 0.13 70 1019.8
20240303194518 58 337 3.0 7.0 0.00 1.48 0.13 70 1019.5
20240303193014 57 4 2.0 7.0 0.00 1.48 0.13 71 1019.4
20240303191521 57 27 2.0 8.0 0.00 1.48 0.13 72 1019.5
20240303190013 56 124 4.0 7.0 0.00 1.48 0.13 72 1019.4
20240303184512 56 324 3.0 6.0 0.00 1.48 0.13 74 1019.4
20240303183009 55 340 1.0 9.0 0.00 1.48 0.13 75 1019.5
20240303181503 55 302 5.0 11.0 0.00 1.48 0.13 76 1019.4
20240303180001 55 345 3.0 6.0 0.00 1.48 0.13 78 1019.4
20240303174600 54 20 2.0 6.0 0.00 1.48 0.13 79 1019.3
20240303174501 54 27 1.0 6.0 0.00 1.48 0.13 80 1019.3
20240303173057 53 46 2.0 6.0 0.00 1.48 0.13 82 1019.3
20240303171555 53 308 2.0 7.0 0.00 1.48 0.13 84 1019.4
20240303170051 52 6 1.0 8.0 0.00 1.48 0.13 88 1019.5
20240303164547 51 308 1.0 6.0 0.00 1.48 0.13 93 1019.6
20240303163042 49 27 3.0 7.0 0.00 1.48 0.13 98 1019.8
20240303161549 48 12 2.0 6.0 0.00 1.48 0.13 98 1019.8
20240303160041 47 341 1.0 6.0 0.00 1.48 0.13 98 1019.7
20240303154541 46 316 4.0 9.0 0.00 1.48 0.13 98 1019.7
20240303153039 46 293 2.0 5.0 0.00 1.48 0.13 98 1019.7
20240303151539 45 293 2.0 6.0 0.00 1.48 0.13 98 1019.9
20240303150037 45 26 3.0 6.0 0.00 1.48 0.13 98 1019.9
20240303144537 44 316 3.0 6.0 0.00 1.48 0.13 98 1020.0
20240303143047 44 354 3.0 9.0 0.00 1.48 0.13 98 1020.0
20240303141533 44 79 2.0 7.0 0.00 1.48 0.13 98 1019.8
20240303140032 44 50 3.0 7.0 0.00 1.48 0.13 98 1019.5
20240303134531 44 27 2.0 5.0 0.00 1.48 0.13 98 1019.4
20240303133029 44 314 1.0 6.0 0.00 1.48 0.13 98 1019.2
20240303131529 44 198 2.0 7.0 0.00 1.48 0.13 98 1019.0
20240303130027 45 311 1.0 6.0 0.00 1.48 0.13 98 1019.0
20240303124526 45 335 2.0 5.0 0.00 1.48 0.13 98 1018.7
20240303123027 45 351 0.0 4.0 0.00 1.48 0.13 98 1018.4
20240303121524 45 304 2.0 6.0 0.00 1.48 0.13 98 1018.3
20240303120023 45 326 1.0 4.0 0.00 1.48 0.13 98 1017.9
20240303114519 0 0.0 0.0 0.00 1.48 0.13 1017.8
20240303113017 0 0.0 0.0 0.00 1.48 0.13 1017.6
20240303111516 0 0.0 0.0 0.00 1.48 0.13 1017.6
20240303110023 0 0.0 0.0 0.00 1.48 0.13 1017.5
20240303104528 0 0.0 0.0 0.00 1.48 0.13 1017.3
20240303103015 0 0.0 0.0 0.00 1.48 0.13 1017.2
20240303101512 0 0.0 0.0 0.00 1.48 0.13 1017.3
20240303100007 0 0.0 0.0 0.00 1.48 0.13 1017.4
20240303094503 0 0.0 0.0 0.00 1.48 0.13 1017.3
20240303093058 0 0.0 0.0 0.00 1.48 0.13 1017.3
20240303091557 0 0.0 0.0 0.00 1.48 0.13 1017.3
20240303090050 0 0.0 0.0 0.00 1.48 0.13 1017.3
20240303084545 0 0.0 0.0 0.00 1.48 0.13 1017.1
20240303083040 0 0.0 0.0 0.01 1.48 0.13 1017.1
20240303081536 0 0.0 0.0 0.02 1.48 0.13 1017.0
20240303080031 0 0.0 0.0 0.03 1.48 0.13 1017.0
20240303074544 48 124 0.0 2.0 0.04 1.48 0.13 98 1017.2
20240303073026 49 124 0.0 1.0 0.04 1.47 0.12 98 1017.4
20240303071526 49 124 0.0 0.0 0.06 1.46 0.11 98 1017.4
20240303070028 49 122 0.0 0.0 0.05 1.45 0.10 98 1017.5
20240303064523 49 121 0.0 4.0 0.05 1.44 0.09 98 1017.6
20240303063020 49 139 0.0 5.0 0.05 1.43 0.08 98 1017.9
20240303061519 49 95 0.0 4.0 0.04 1.40 0.05 98 1018.2
20240303060015 47 184 0.0 3.0 0.05 1.40 0.05 98 1018.5
20240303054510 46 79 0.0 2.0 0.07 1.39 0.04 98 1018.8
20240303053007 45 79 0.0 4.0 0.12 1.38 0.03 98 1019.1
20240303051504 45 15 0.0 1.0 0.20 1.36 0.01 98 1019.4
20240303050002 45 352 0.0 1.0 0.28 1.35 1.35 98 1019.7
20240303044601 45 352 0.0 2.0 0.44 1.33 1.33 98 1019.8
20240303044501 45 329 0.0 1.0 0.44 1.32 1.32 98 1019.9
20240303043103 46 308 0.0 3.0 0.46 1.26 1.26 98 1020.2
20240303041608 46 26 0.0 2.0 0.42 1.15 1.15 98 1019.9
20240303040104 46 12 0.0 5.0 0.40 1.07 1.07 98 1019.8
20240303034600 45 29 0.0 2.0 0.30 0.89 0.89 98 1020.5
20240303033053 45 28 1.0 2.0 0.27 0.80 0.80 98 1020.9
20240303031551 45 28 0.0 2.0 0.26 0.73 0.73 98 1021.5
20240303030049 45 65 1.0 3.0 0.25 0.66 0.66 98 1021.7
20240303024547 46 32 0.0 2.0 0.20 0.59 0.59 98 1022.1
20240303023045 47 63 0.0 3.0 0.16 0.53 0.53 98 1022.5
20240303021543 47 47 2.0 4.0 0.11 0.46 0.46 98 1022.8